createdAt,value
2023-01-30T00:01:02.044Z,5.43
2023-01-30T00:03:29.327Z,5.33
2023-01-30T00:05:56.551Z,4.77
2023-01-30T00:08:23.809Z,4.17
2023-01-30T00:10:51.095Z,4.20
2023-01-30T00:13:18.345Z,4.23
2023-01-30T00:15:45.628Z,4.73
2023-01-30T00:18:12.868Z,5.93
2023-01-30T00:20:40.191Z,4.47
2023-01-30T00:23:07.436Z,5.77
2023-01-30T00:25:34.835Z,3.90
2023-01-30T00:28:02.704Z,4.30
2023-01-30T00:30:30.472Z,3.30
2023-01-30T00:32:58.892Z,4.00
2023-01-30T00:35:28.724Z,3.50
2023-01-30T00:37:57.754Z,4.70
2023-01-30T00:40:26.942Z,3.57
2023-01-30T00:43:13.143Z,3.53
2023-01-30T00:46:01.835Z,6.50
2023-01-30T00:48:29.544Z,3.33
2023-01-30T00:50:56.820Z,2.87
2023-01-30T00:53:24.615Z,2.73
2023-01-30T00:55:52.964Z,3.60
2023-01-30T00:58:20.830Z,2.43
2023-01-30T01:00:49.134Z,2.43
2023-01-30T01:03:16.878Z,2.60
2023-01-30T01:05:44.557Z,4.23
2023-01-30T01:08:12.186Z,3.27
2023-01-30T01:10:39.464Z,3.27
2023-01-30T01:13:07.265Z,3.20
2023-01-30T01:15:34.529Z,3.70
2023-01-30T01:18:01.785Z,2.63
2023-01-30T01:20:28.996Z,2.63
2023-01-30T01:22:57.385Z,2.67
2023-01-30T01:25:25.828Z,3.27
2023-01-30T01:27:55.149Z,2.87
2023-01-30T01:30:22.569Z,2.83
2023-01-30T01:32:49.892Z,3.30
2023-01-30T01:35:17.416Z,2.40
2023-01-30T01:37:44.907Z,3.80
2023-01-30T01:40:38.199Z,5.40
2023-01-30T01:43:22.758Z,4.80
2023-01-30T01:45:53.718Z,3.00
2023-01-30T01:48:44.502Z,2.63
2023-01-30T01:51:19.650Z,2.33
2023-01-30T01:54:05.747Z,3.27
2023-01-30T01:56:34.820Z,6.53
2023-01-30T01:59:16.143Z,3.33
2023-01-30T02:01:43.329Z,4.13
2023-01-30T02:04:12.082Z,3.93
2023-01-30T02:06:41.640Z,2.20
2023-01-30T02:09:11.263Z,3.00
2023-01-30T02:11:47.934Z,2.63
2023-01-30T02:14:16.060Z,2.60
2023-01-30T02:16:45.048Z,2.70
2023-01-30T02:19:42.624Z,2.57
2023-01-30T02:22:31.155Z,2.37
2023-01-30T02:25:04.553Z,1.90
2023-01-30T02:27:37.822Z,2.30
2023-01-30T02:30:34.634Z,2.03
2023-01-30T02:33:32.454Z,2.20
2023-01-30T02:36:10.896Z,2.70
2023-01-30T02:38:44.773Z,2.77
2023-01-30T02:41:37.571Z,1.73
2023-01-30T02:44:48.414Z,2.30
2023-01-30T02:47:25.572Z,3.03
2023-01-30T02:50:00.740Z,3.97
2023-01-30T02:52:29.393Z,4.30
2023-01-30T02:54:56.711Z,6.57
2023-01-30T02:57:25.346Z,8.30
2023-01-30T02:59:59.942Z,5.67
2023-01-30T03:02:30.015Z,3.80
2023-01-30T03:05:21.441Z,3.43
2023-01-30T03:07:54.590Z,2.83
2023-01-30T03:10:34.020Z,3.37
2023-01-30T03:13:38.156Z,2.43
2023-01-30T03:16:14.156Z,3.27
2023-01-30T03:18:43.497Z,2.30
2023-01-30T03:21:12.424Z,4.20
2023-01-30T03:23:39.843Z,3.30
2023-01-30T03:26:13.079Z,3.00
2023-01-30T03:28:40.995Z,3.00
2023-01-30T03:31:09.224Z,3.33
2023-01-30T03:33:36.538Z,4.00
2023-01-30T03:36:04.028Z,2.17
2023-01-30T03:38:31.537Z,2.00
2023-01-30T03:40:59.180Z,2.77
2023-01-30T03:43:26.346Z,2.83
2023-01-30T03:45:53.876Z,3.37
2023-01-30T03:48:21.147Z,4.87
2023-01-30T03:50:48.592Z,3.33
2023-01-30T03:53:15.820Z,3.07
2023-01-30T03:55:45.111Z,4.60
2023-01-30T03:58:12.437Z,3.30
2023-01-30T04:00:39.720Z,1.90
2023-01-30T04:03:07.756Z,2.13
2023-01-30T04:05:34.994Z,2.40
2023-01-30T04:08:02.229Z,3.10
2023-01-30T04:10:29.521Z,2.90
2023-01-30T04:12:56.822Z,2.50
2023-01-30T04:15:24.026Z,3.83
2023-01-30T04:17:51.214Z,2.20
2023-01-30T04:20:19.652Z,3.30
2023-01-30T04:22:46.862Z,2.57
2023-01-30T04:25:14.161Z,3.10
2023-01-30T04:27:41.424Z,5.43
2023-01-30T04:30:09.384Z,2.80
2023-01-30T04:32:36.590Z,3.00
2023-01-30T04:35:04.074Z,3.10
2023-01-30T04:37:31.882Z,1.80
2023-01-30T04:39:59.047Z,1.83
2023-01-30T04:42:26.302Z,1.93
2023-01-30T04:44:53.510Z,1.83
2023-01-30T04:47:20.721Z,3.17
2023-01-30T04:49:47.930Z,1.67
2023-01-30T04:52:15.167Z,1.53
2023-01-30T04:54:42.377Z,1.97
2023-01-30T04:57:09.546Z,1.37
2023-01-30T04:59:36.772Z,1.60
2023-01-30T05:02:04.062Z,1.67
2023-01-30T05:04:31.388Z,1.33
2023-01-30T05:06:58.654Z,1.00
2023-01-30T05:09:25.932Z,1.30
2023-01-30T05:11:53.146Z,1.30
2023-01-30T05:14:20.393Z,1.47
2023-01-30T05:16:47.664Z,2.40
2023-01-30T05:19:14.955Z,1.00
2023-01-30T05:21:42.155Z,3.23
2023-01-30T05:24:09.431Z,1.53
2023-01-30T05:26:36.821Z,1.10
2023-01-30T05:29:04.217Z,2.73
2023-01-30T05:31:31.521Z,2.10
2023-01-30T05:33:58.867Z,3.50
2023-01-30T05:36:26.064Z,1.63
2023-01-30T05:38:53.418Z,2.43
2023-01-30T05:41:20.680Z,2.57
2023-01-30T05:43:51.450Z,2.90
2023-01-30T05:46:19.271Z,2.10
2023-01-30T05:48:46.807Z,1.07
2023-01-30T05:51:22.761Z,1.13
2023-01-30T05:53:50.560Z,1.43
2023-01-30T05:56:19.223Z,1.33
2023-01-30T05:58:54.182Z,1.10
2023-01-30T06:01:22.611Z,1.20
2023-01-30T06:03:50.045Z,1.83
2023-01-30T06:06:18.037Z,1.83
2023-01-30T06:08:45.616Z,2.00
2023-01-30T06:11:15.649Z,1.83
2023-01-30T06:13:43.841Z,1.30
2023-01-30T06:16:12.760Z,1.63
2023-01-30T06:18:40.766Z,1.57
2023-01-30T06:21:08.247Z,1.20
2023-01-30T06:23:35.951Z,1.30
2023-01-30T06:26:04.959Z,1.63
2023-01-30T06:28:33.108Z,1.97
2023-01-30T06:31:00.841Z,1.77
2023-01-30T06:33:28.171Z,1.37
2023-01-30T06:35:55.640Z,1.17
2023-01-30T06:38:23.061Z,2.20
2023-01-30T06:40:51.156Z,1.30
2023-01-30T06:43:18.786Z,2.20
2023-01-30T06:45:45.978Z,1.70
2023-01-30T06:48:13.205Z,2.70
2023-01-30T06:50:40.419Z,5.53
2023-01-30T06:53:08.763Z,3.30
2023-01-30T06:55:36.832Z,3.03
2023-01-30T06:58:13.227Z,4.17
2023-01-30T07:00:42.493Z,2.87
2023-01-30T07:03:14.802Z,2.00
2023-01-30T07:05:43.604Z,2.53
2023-01-30T07:08:11.264Z,7.27
2023-01-30T07:10:39.103Z,2.47
2023-01-30T07:13:06.396Z,1.57
2023-01-30T07:15:33.652Z,2.30
2023-01-30T07:18:00.891Z,2.23
2023-01-30T07:20:30.129Z,2.20
2023-01-30T07:22:57.805Z,2.50
2023-01-30T07:25:26.551Z,3.33
2023-01-30T07:28:03.758Z,2.47
2023-01-30T07:30:33.353Z,3.33
2023-01-30T07:33:01.118Z,1.53
2023-01-30T07:35:30.987Z,1.67
2023-01-30T07:37:58.763Z,1.50
2023-01-30T07:40:26.892Z,1.90
2023-01-30T07:42:58.108Z,3.40
2023-01-30T07:45:28.287Z,2.40
2023-01-30T07:47:55.636Z,3.00
2023-01-30T07:50:22.919Z,2.83
2023-01-30T07:52:50.160Z,2.10
2023-01-30T07:55:17.672Z,4.27
2023-01-30T07:57:45.064Z,6.70
2023-01-30T08:00:14.075Z,4.40
2023-01-30T08:02:41.282Z,3.40
2023-01-30T08:05:09.008Z,8.93
2023-01-30T08:07:36.421Z,3.40
2023-01-30T08:10:04.027Z,13.60
2023-01-30T08:12:31.273Z,5.57
2023-01-30T08:14:58.483Z,5.50
2023-01-30T08:17:25.833Z,5.60
2023-01-30T08:19:53.151Z,6.53
2023-01-30T08:22:20.337Z,7.17
2023-01-30T08:24:47.650Z,7.37
2023-01-30T08:27:14.929Z,5.20
2023-01-30T08:29:42.168Z,4.97
2023-01-30T08:32:09.353Z,7.40
2023-01-30T08:34:36.736Z,3.60
2023-01-30T08:37:03.977Z,4.70
2023-01-30T08:39:31.429Z,4.80
2023-01-30T08:41:58.755Z,4.23
2023-01-30T08:44:25.979Z,5.03
2023-01-30T08:46:53.194Z,4.43
2023-01-30T08:49:20.432Z,6.07
2023-01-30T08:51:47.686Z,5.67
2023-01-30T08:54:14.886Z,4.80
2023-01-30T08:56:42.244Z,4.70
2023-01-30T08:59:09.433Z,4.30
2023-01-30T09:01:38.248Z,4.20
2023-01-30T09:04:06.038Z,8.30
2023-01-30T09:06:33.463Z,9.43
2023-01-30T09:09:00.765Z,5.23
2023-01-30T09:11:28.101Z,5.03
2023-01-30T09:13:55.466Z,5.07
2023-01-30T09:16:22.725Z,4.30
2023-01-30T09:18:50.176Z,4.03
2023-01-30T09:21:17.447Z,6.73
2023-01-30T09:23:44.740Z,7.67
2023-01-30T09:26:11.953Z,5.23
2023-01-30T09:28:39.304Z,11.40
2023-01-30T09:31:06.662Z,3.57
2023-01-30T09:33:34.042Z,6.70
2023-01-30T09:36:01.320Z,6.57
2023-01-30T09:38:28.537Z,6.57
2023-01-30T09:41:24.892Z,12.63
2023-01-30T09:43:57.998Z,9.80
2023-01-30T09:46:49.887Z,6.47
2023-01-30T09:49:48.851Z,9.33
2023-01-30T09:52:37.596Z,9.83
2023-01-30T09:55:19.012Z,6.93
2023-01-30T09:57:48.636Z,7.30
2023-01-30T10:00:26.460Z,5.40
2023-01-30T10:02:57.608Z,6.33
2023-01-30T10:05:54.739Z,8.33
2023-01-30T10:08:53.881Z,7.17
2023-01-30T10:11:58.323Z,7.60
2023-01-30T10:14:40.353Z,8.73
2023-01-30T10:17:43.545Z,6.00
2023-01-30T10:20:23.085Z,6.57
2023-01-30T10:23:30.364Z,8.87
2023-01-30T10:26:14.416Z,7.00
2023-01-30T10:29:06.166Z,7.80
2023-01-30T10:31:44.326Z,11.20
2023-01-30T10:34:32.946Z,7.20
2023-01-30T10:37:09.952Z,5.77
2023-01-30T10:39:54.858Z,6.10
2023-01-30T10:42:39.001Z,5.00
2023-01-30T10:45:38.260Z,6.03
2023-01-30T10:48:43.009Z,5.23
2023-01-30T10:51:18.833Z,16.43
2023-01-30T10:54:09.400Z,6.90
2023-01-30T10:56:49.898Z,7.17
2023-01-30T10:59:40.987Z,4.40
2023-01-30T11:02:30.145Z,5.70
2023-01-30T11:05:13.384Z,8.47
2023-01-30T11:07:42.270Z,5.60
2023-01-30T11:10:24.806Z,4.80
2023-01-30T11:13:13.324Z,3.73
2023-01-30T11:15:41.986Z,4.60
2023-01-30T11:21:05.303Z,9.70
2023-01-30T11:23:41.725Z,5.03
2023-01-30T11:26:21.358Z,3.50
2023-01-30T11:28:49.158Z,8.80
2023-01-30T11:31:31.511Z,6.20
2023-01-30T11:34:12.668Z,5.93
2023-01-30T11:36:39.988Z,9.30
2023-01-30T11:39:13.207Z,13.83
2023-01-30T11:41:56.589Z,8.23
2023-01-30T11:44:28.700Z,5.87
2023-01-30T11:47:00.111Z,7.43
2023-01-30T11:49:55.340Z,9.50
2023-01-30T11:52:30.436Z,7.63
2023-01-30T11:55:08.779Z,6.90
2023-01-30T11:57:44.711Z,6.23
2023-01-30T12:00:24.433Z,10.50
2023-01-30T12:02:54.248Z,8.37
2023-01-30T12:05:34.726Z,7.90
2023-01-30T12:08:42.382Z,4.20
2023-01-30T12:11:31.575Z,4.90
2023-01-30T12:14:36.517Z,3.77
2023-01-30T12:17:21.652Z,3.37
2023-01-30T12:20:14.287Z,5.60
2023-01-30T12:23:13.241Z,2.97
2023-01-30T12:26:09.066Z,5.50
2023-01-30T12:28:40.213Z,3.20
2023-01-30T12:31:13.945Z,9.13
2023-01-30T12:33:41.305Z,4.50
2023-01-30T12:36:37.864Z,6.03
2023-01-30T12:39:39.044Z,3.00
2023-01-30T12:42:43.151Z,2.67
2023-01-30T12:45:32.941Z,3.10
2023-01-30T12:48:29.700Z,2.80
2023-01-30T12:51:05.914Z,2.60
2023-01-30T12:53:40.053Z,1.93
2023-01-30T12:56:24.392Z,3.70
2023-01-30T12:58:59.002Z,2.07
2023-01-30T13:01:36.817Z,3.43
2023-01-30T13:04:22.947Z,3.07
2023-01-30T13:07:22.121Z,1.60
2023-01-30T13:10:12.207Z,3.80
2023-01-30T13:12:48.428Z,3.53
2023-01-30T13:15:46.429Z,3.73
2023-01-30T13:18:32.559Z,1.77
2023-01-30T13:21:05.614Z,1.57
2023-01-30T13:23:49.982Z,1.90
2023-01-30T13:26:25.368Z,5.87
2023-01-30T13:28:59.524Z,2.70
2023-01-30T13:31:30.301Z,2.07
2023-01-30T13:34:30.837Z,2.80
2023-01-30T13:37:11.684Z,2.20
2023-01-30T13:39:47.127Z,3.90
2023-01-30T13:42:41.319Z,4.80
2023-01-30T13:45:22.236Z,1.70
2023-01-30T13:47:52.257Z,1.93
2023-01-30T13:50:45.176Z,2.70
2023-01-30T13:53:17.328Z,1.50
2023-01-30T13:55:57.160Z,1.37
2023-01-30T13:58:44.285Z,3.10
2023-01-30T14:01:13.647Z,1.50
2023-01-30T14:03:42.149Z,2.77
2023-01-30T14:06:23.875Z,4.83
2023-01-30T14:08:59.118Z,4.73
2023-01-30T14:11:44.574Z,3.37
2023-01-30T14:14:28.091Z,4.10
2023-01-30T14:17:07.297Z,1.57
2023-01-30T14:19:40.017Z,2.30
2023-01-30T14:22:36.682Z,2.70
2023-01-30T14:25:22.544Z,3.70
2023-01-30T14:27:52.872Z,2.33
2023-01-30T14:30:45.749Z,2.97
2023-01-30T14:33:22.021Z,5.70
2023-01-30T14:36:01.323Z,5.50
2023-01-30T14:38:36.351Z,2.63
2023-01-30T14:41:03.653Z,5.33
2023-01-30T14:43:42.913Z,3.60
2023-01-30T14:46:19.372Z,14.37
2023-01-30T14:49:00.999Z,9.97
2023-01-30T14:51:44.659Z,5.17
2023-01-30T14:54:14.929Z,4.50
2023-01-30T14:57:00.229Z,4.53
2023-01-30T14:59:32.104Z,5.80
2023-01-30T15:02:14.669Z,3.57
2023-01-30T15:05:06.103Z,13.43
2023-01-30T15:07:44.331Z,3.90
2023-01-30T15:10:23.716Z,3.50
2023-01-30T15:13:06.420Z,7.03
2023-01-30T15:15:58.785Z,4.60
2023-01-30T15:18:43.780Z,6.43
2023-01-30T15:21:20.267Z,8.33
2023-01-30T15:24:20.008Z,5.20
2023-01-30T15:27:12.391Z,4.27
2023-01-30T15:29:57.756Z,4.07
2023-01-30T15:32:27.590Z,6.00
2023-01-30T15:34:59.465Z,4.40
2023-01-30T15:37:35.939Z,4.90
2023-01-30T15:40:15.641Z,5.23
2023-01-30T15:43:13.779Z,4.73
2023-01-30T15:45:59.088Z,3.83
2023-01-30T15:48:54.447Z,4.40
2023-01-30T15:51:27.793Z,4.30
2023-01-30T15:53:56.550Z,4.50
2023-01-30T15:56:26.689Z,4.60
2023-01-30T15:58:56.039Z,4.60
2023-01-30T16:01:23.949Z,3.60
2023-01-30T16:03:53.414Z,3.90
2023-01-30T16:06:33.721Z,4.43
2023-01-30T16:09:02.308Z,5.40
2023-01-30T16:11:43.274Z,7.00
2023-01-30T16:14:16.459Z,6.03
2023-01-30T16:16:50.869Z,5.50
2023-01-30T16:19:32.637Z,10.57
2023-01-30T16:22:06.206Z,11.17
2023-01-30T16:24:37.367Z,5.40
2023-01-30T16:27:16.193Z,13.10
2023-01-30T16:29:53.275Z,17.10
2023-01-30T16:32:28.442Z,12.10
2023-01-30T16:35:15.568Z,9.90
2023-01-30T16:37:43.011Z,8.33
2023-01-30T16:40:27.655Z,5.50
2023-01-30T16:43:34.491Z,6.77
2023-01-30T16:46:42.819Z,7.63
2023-01-30T16:49:18.570Z,6.27
2023-01-30T16:51:46.829Z,6.77
2023-01-30T16:54:25.196Z,4.37
2023-01-30T16:56:55.894Z,7.27
2023-01-30T16:59:33.234Z,5.20
2023-01-30T17:02:04.457Z,4.50
2023-01-30T17:04:33.709Z,5.60
2023-01-30T17:07:04.286Z,5.10
2023-01-30T17:09:48.598Z,3.97
2023-01-30T17:12:31.238Z,4.13
2023-01-30T17:15:13.673Z,8.00
2023-01-30T17:17:42.016Z,4.77
2023-01-30T17:20:11.191Z,5.13
2023-01-30T17:22:40.920Z,5.70
2023-01-30T17:25:18.542Z,4.57
2023-01-30T17:27:45.837Z,3.63
2023-01-30T17:30:15.858Z,5.30
2023-01-30T17:32:43.091Z,4.57
2023-01-30T17:35:12.448Z,4.10
2023-01-30T17:37:39.685Z,6.40
2023-01-30T17:40:19.491Z,7.23
2023-01-30T17:42:47.917Z,6.63
2023-01-30T17:45:15.308Z,5.53
2023-01-30T17:47:42.547Z,5.83
2023-01-30T17:50:14.158Z,8.53
2023-01-30T17:52:41.891Z,6.90
2023-01-30T17:55:13.659Z,5.60
2023-01-30T17:57:46.915Z,5.23
2023-01-30T18:00:21.654Z,2.20
2023-01-30T18:02:49.627Z,4.83
2023-01-30T18:05:16.896Z,0.60
2023-01-30T18:07:44.599Z,2.10
2023-01-30T18:10:16.387Z,0.40
2023-01-30T18:12:45.415Z,0.40
2023-01-30T18:15:17.747Z,0.43
2023-01-30T18:17:49.792Z,0.87
2023-01-30T18:20:19.938Z,0.50
2023-01-30T18:22:47.497Z,0.60
2023-01-30T18:25:15.681Z,0.93
2023-01-30T18:27:44.652Z,0.60
2023-01-30T18:30:15.777Z,0.50
2023-01-30T18:32:52.376Z,0.50
2023-01-30T18:35:20.379Z,0.60
2023-01-30T18:37:47.697Z,0.40
2023-01-30T18:40:15.320Z,0.40
2023-01-30T18:42:42.620Z,0.63
2023-01-30T18:45:10.141Z,0.40
2023-01-30T18:47:37.453Z,0.40
2023-01-30T18:50:05.818Z,0.40
2023-01-30T18:52:33.048Z,0.50
2023-01-30T18:55:00.288Z,0.80
2023-01-30T18:57:27.559Z,0.40
2023-01-30T18:59:54.883Z,0.50
2023-01-30T19:02:22.281Z,0.40
2023-01-30T19:04:49.614Z,0.53
2023-01-30T19:07:16.886Z,0.57
2023-01-30T19:09:44.113Z,0.47
2023-01-30T19:12:30.354Z,0.40
2023-01-30T19:14:57.661Z,0.70
2023-01-30T19:17:25.020Z,0.40
2023-01-30T19:19:52.309Z,0.40
2023-01-30T19:22:19.565Z,0.40
2023-01-30T19:24:46.762Z,0.40
2023-01-30T19:27:14.084Z,0.40
2023-01-30T19:29:41.872Z,0.40
2023-01-30T19:32:09.690Z,0.40
2023-01-30T19:34:38.413Z,0.40
2023-01-30T19:37:06.819Z,0.40
2023-01-30T19:39:34.181Z,0.50
2023-01-30T19:42:01.600Z,0.57
2023-01-30T19:44:28.967Z,0.37
2023-01-30T19:46:56.295Z,1.40
2023-01-30T19:49:23.720Z,0.40
2023-01-30T19:51:51.078Z,0.50
2023-01-30T19:54:18.951Z,0.37
2023-01-30T19:56:48.473Z,0.40
2023-01-30T19:59:16.811Z,0.57
2023-01-30T20:01:44.641Z,0.50
2023-01-30T20:04:12.099Z,0.60
2023-01-30T20:06:44.395Z,0.40
2023-01-30T20:09:12.377Z,0.60
2023-01-30T20:11:42.132Z,0.40
2023-01-30T20:14:10.885Z,0.40
2023-01-30T20:16:41.124Z,0.40
2023-01-30T20:19:17.613Z,0.40
2023-01-30T20:21:45.531Z,0.40
2023-01-30T20:24:15.011Z,0.37
2023-01-30T20:26:44.705Z,2.00
2023-01-30T20:29:13.555Z,0.43
2023-01-30T20:31:40.899Z,0.40
2023-01-30T20:34:12.135Z,0.40
2023-01-30T20:36:39.401Z,0.43
2023-01-30T20:39:07.725Z,0.40
2023-01-30T20:41:37.869Z,0.53
2023-01-30T20:44:07.631Z,0.40
2023-01-30T20:46:43.901Z,0.40
2023-01-30T20:49:17.326Z,0.40
2023-01-30T20:51:45.855Z,1.13
2023-01-30T20:54:15.036Z,0.40
2023-01-30T20:56:44.578Z,0.60
2023-01-30T20:59:15.132Z,0.40
2023-01-30T21:01:43.387Z,0.30
2023-01-30T21:04:13.760Z,0.30
2023-01-30T21:06:45.765Z,0.37
2023-01-30T21:09:16.692Z,0.40
2023-01-30T21:11:44.788Z,0.40
2023-01-30T21:14:12.322Z,0.43
2023-01-30T21:16:39.929Z,0.40
2023-01-30T21:19:12.961Z,0.40
2023-01-30T21:21:51.159Z,0.40
2023-01-30T21:24:22.487Z,0.33
2023-01-30T21:26:50.250Z,0.40
2023-01-30T21:29:19.678Z,0.37
2023-01-30T21:31:47.088Z,0.40
2023-01-30T21:34:15.911Z,0.40
2023-01-30T21:36:43.239Z,0.40
2023-01-30T21:39:31.825Z,0.40
2023-01-30T21:42:17.858Z,0.40
2023-01-30T21:44:45.161Z,0.40
2023-01-30T21:47:12.372Z,0.40
2023-01-30T21:49:40.894Z,0.40
2023-01-30T21:52:08.098Z,0.30
2023-01-30T21:54:35.467Z,0.40
2023-01-30T21:57:02.732Z,0.40
2023-01-30T21:59:31.575Z,0.40
2023-01-30T22:01:58.803Z,0.30
2023-01-30T22:04:26.025Z,0.53
2023-01-30T22:06:53.307Z,0.40
2023-01-30T22:09:20.580Z,0.40
2023-01-30T22:11:48.480Z,0.70
2023-01-30T22:14:15.698Z,0.33
2023-01-30T22:16:43.078Z,0.40
2023-01-30T22:19:11.563Z,0.40
2023-01-30T22:21:40.474Z,0.43
2023-01-30T22:24:09.849Z,0.53
2023-01-30T22:26:37.682Z,0.40
2023-01-30T22:29:06.501Z,0.67
2023-01-30T22:31:36.411Z,0.37
2023-01-30T22:34:05.171Z,0.50
2023-01-30T22:36:33.989Z,0.40
2023-01-30T22:39:01.825Z,0.40
2023-01-30T22:41:32.382Z,0.30
2023-01-30T22:44:01.024Z,0.40
2023-01-30T22:46:31.581Z,0.30
2023-01-30T22:49:00.295Z,0.40
2023-01-30T22:51:33.305Z,0.40
2023-01-30T22:54:03.162Z,0.30
2023-01-30T22:56:39.627Z,0.40
2023-01-30T22:59:07.782Z,0.40
2023-01-30T23:01:38.341Z,0.40
2023-01-30T23:04:10.740Z,0.40
2023-01-30T23:06:38.265Z,0.40
2023-01-30T23:09:07.056Z,1.50
2023-01-30T23:11:40.976Z,0.40
2023-01-30T23:14:16.068Z,0.40
2023-01-30T23:16:45.207Z,2.70
2023-01-30T23:19:13.688Z,3.30
2023-01-30T23:21:46.024Z,0.77
2023-01-30T23:24:21.363Z,0.40
2023-01-30T23:26:51.183Z,0.50
2023-01-30T23:29:20.389Z,1.70
2023-01-30T23:31:48.067Z,0.40
2023-01-30T23:34:18.059Z,0.30
2023-01-30T23:36:46.105Z,2.10
2023-01-30T23:39:14.720Z,0.30
2023-01-30T23:41:42.651Z,0.40
2023-01-30T23:44:10.748Z,0.40
2023-01-30T23:46:40.732Z,0.40
2023-01-30T23:49:12.738Z,0.30
2023-01-30T23:51:42.245Z,0.43
2023-01-30T23:54:10.666Z,0.80
2023-01-30T23:56:39.984Z,0.40
2023-01-30T23:59:07.451Z,0.40
